Time;durP1;ratioP1;P1;durP2;ratioP2;P2;SDS_P1;SDS_P2;PMS_P1;PMS_P2;Temp;Humidity;BMP_temperature;BMP_pressure;BME280_temperature;BME280_humidity;BME280_pressure;Samples;Min_cycle;Max_cycle;Signal;HPM_P1;HPM_P2
2022/10/28 00:01:43;;;;;;;7.93;3.97;;;;;;;-141.28;100.00;49502.03;5117002;27;20683;-78
2022/10/28 00:04:10;;;;;;;12.93;4.63;;;;;;;-141.28;100.00;49503.97;5135190;27;20222;-79
2022/10/28 00:06:37;;;;;;;9.13;4.23;;;;;;;-141.28;100.00;49482.41;5135080;27;20631;-75
2022/10/28 00:09:05;;;;;;;6.90;3.50;;;;;;;-141.28;100.00;49490.25;5135241;27;20198;-76
2022/10/28 00:11:34;;;;;;;8.37;3.53;;;;;;;-141.28;100.00;49484.34;5135344;27;20744;-79
2022/10/28 00:14:05;;;;;;;4.60;3.03;;;;;;;-141.28;100.00;49470.63;5133303;27;20753;-79
2022/10/28 00:16:35;;;;;;;5.50;3.50;;;;;;;-141.28;100.00;49482.41;5118030;27;20226;-76
2022/10/28 00:19:04;;;;;;;7.83;3.10;;;;;;;-141.28;100.00;49523.59;5120203;27;20199;-79
2022/10/28 00:21:34;;;;;;;4.73;2.83;;;;;;;-141.28;100.00;49486.31;5131035;27;20258;-78
2022/10/28 00:24:01;;;;;;;11.03;3.33;;;;;;;-141.28;100.00;49478.47;5122111;27;20206;-77
2022/10/28 00:26:31;;;;;;;5.00;2.90;;;;;;;-141.28;100.00;49498.09;5135158;27;20243;-80
2022/10/28 00:29:00;;;;;;;6.33;3.63;;;;;;;-141.28;100.00;49511.84;5134875;27;20198;-78
2022/10/28 00:31:28;;;;;;;5.47;3.10;;;;;;;-141.28;100.00;49529.50;5130231;27;20264;-80
2022/10/28 00:33:56;;;;;;;5.17;3.03;;;;;;;-141.28;100.00;49500.06;5128078;27;20228;-78
2022/10/28 00:36:26;;;;;;;4.27;3.10;;;;;;;-141.28;100.00;49498.09;5134698;27;20279;-77
2022/10/28 00:38:54;;;;;;;5.70;2.93;;;;;;;-141.28;100.00;49527.53;5135058;27;20618;-77
2022/10/28 00:41:24;;;;;;;6.53;3.13;;;;;;;-141.28;100.00;49545.19;5122725;27;20595;-78
2022/10/28 00:43:54;;;;;;;5.70;3.13;;;;;;;-141.28;100.00;49535.38;5137210;27;20276;-76
2022/10/28 00:46:28;;;;;;;4.97;3.03;;;;;;;-141.28;100.00;49564.81;5139323;27;20211;-77
2022/10/28 00:49:00;;;;;;;7.13;3.20;;;;;;;-141.28;100.00;49523.59;5126880;27;20202;-78
2022/10/28 00:51:29;;;;;;;10.03;3.63;;;;;;;-141.28;100.00;49523.59;5130846;27;20251;-76
2022/10/28 00:53:57;;;;;;;8.87;3.00;;;;;;;-141.28;100.00;49509.88;5134664;27;20202;-76
2022/10/28 00:56:26;;;;;;;7.63;3.70;;;;;;;-141.28;100.00;49478.47;5134721;27;20225;-79
2022/10/28 00:58:59;;;;;;;11.03;4.77;;;;;;;-141.28;100.00;49458.84;5121833;27;20247;-78
2022/10/28 01:01:26;;;;;;;8.93;3.83;;;;;;;-141.28;100.00;49494.16;5134523;27;20198;-76
2022/10/28 01:03:54;;;;;;;10.37;4.40;;;;;;;-141.28;100.00;49458.84;5134330;27;20222;-76
2022/10/28 01:06:21;;;;;;;15.13;5.87;;;;;;;-141.28;100.00;49466.69;5134471;27;20584;-76
2022/10/28 01:08:48;;;;;;;15.30;5.80;;;;;;;-141.28;100.00;49403.91;5136332;27;20570;-77
2022/10/28 01:11:40;;;;;;;14.67;5.43;;;;;;;-141.28;100.00;49451.00;5135248;27;20206;-79
2022/10/28 01:14:32;;;;;;;12.57;5.90;;;;;;;-141.28;100.00;49519.69;5134293;27;20229;-78
2022/10/28 01:17:12;;;;;;;12.97;6.07;;;;;;;-141.28;100.00;49443.16;5133159;27;20222;-80
2022/10/28 01:20:09;;;;;;;9.93;6.07;;;;;;;-141.28;100.00;49458.84;5134054;27;20262;-77
2022/10/28 01:22:42;;;;;;;10.20;5.63;;;;;;;-141.28;100.00;49441.19;5129731;27;20669;-78
2022/10/28 01:25:35;;;;;;;11.17;5.97;;;;;;;-141.28;100.00;49458.84;5126673;27;20256;-78
2022/10/28 01:28:28;;;;;;;12.07;6.33;;;;;;;-141.28;100.00;49466.69;5133813;27;20202;-76
2022/10/28 01:31:19;;;;;;;17.00;7.07;;;;;;;-141.28;100.00;49470.63;5131412;27;20669;-75
2022/10/28 01:33:52;;;;;;;23.13;7.33;;;;;;;-141.28;100.00;49411.75;5133860;27;20202;-76
2022/10/28 01:36:27;;;;;;;16.43;7.03;;;;;;;-141.28;100.00;49392.13;5134837;27;20225;-76
2022/10/28 01:39:00;;;;;;;12.03;6.13;;;;;;;-141.28;100.00;49356.81;5142126;27;20194;-75
2022/10/28 01:41:34;;;;;;;13.77;5.90;;;;;;;-141.28;100.00;49348.97;5142204;27;20213;-74
2022/10/28 01:44:07;;;;;;;18.23;5.87;;;;;;;-141.28;100.00;49309.72;5144871;27;20197;-77
2022/10/28 01:46:41;;;;;;;13.13;6.20;;;;;;;-141.28;100.00;49317.56;5134148;27;20198;-76
2022/10/28 01:49:14;;;;;;;13.43;5.40;;;;;;;-141.28;100.00;49288.13;5120455;27;20190;-75
2022/10/28 01:51:46;;;;;;;10.47;5.47;;;;;;;-141.28;100.00;49290.09;5133777;27;20278;-78
2022/10/28 01:54:17;;;;;;;9.30;5.43;;;;;;;-141.28;100.00;49254.78;5133468;27;20194;-76
2022/10/28 01:56:46;;;;;;;10.23;5.50;;;;;;;-141.28;100.00;49258.69;5132866;27;20230;-76
2022/10/28 01:59:17;;;;;;;10.53;4.83;;;;;;;-141.28;100.00;49244.97;5133165;27;20281;-76
2022/10/28 02:01:45;;;;;;;10.47;4.87;;;;;;;-141.28;100.00;49250.84;5133078;27;20262;-78
2022/10/28 02:04:12;;;;;;;7.83;4.97;;;;;;;-141.28;100.00;49227.31;5132926;27;20229;-76
2022/10/28 02:06:42;;;;;;;8.50;4.77;;;;;;;-141.28;100.00;49213.56;5133342;27;20198;-76
2022/10/28 02:09:22;;;;;;;9.70;4.70;;;;;;;-141.28;100.00;49258.69;5133334;27;20267;-79
2022/10/28 02:12:14;;;;;;;8.23;4.73;;;;;;;-141.28;100.00;49278.31;5121211;27;20202;-74
2022/10/28 02:15:01;;;;;;;9.17;4.63;;;;;;;-141.28;100.00;49292.06;5132949;27;20672;-78
2022/10/28 02:17:41;;;;;;;8.13;4.83;;;;;;;-141.28;100.00;49286.16;5132612;27;20727;-77
2022/10/28 02:20:19;;;;;;;8.60;4.63;;;;;;;-141.28;100.00;49290.09;5132830;27;20197;-77
2022/10/28 02:22:51;;;;;;;5.87;3.90;;;;;;;-141.28;100.00;49241.03;5127311;27;20203;-77
2022/10/28 02:25:21;;;;;;;5.80;3.97;;;;;;;-141.28;100.00;49243.00;5126595;27;20214;-80
2022/10/28 02:27:56;;;;;;;9.00;4.13;;;;;;;-141.28;100.00;49235.16;5135854;27;20202;-76
2022/10/28 02:30:25;;;;;;;9.53;4.67;;;;;;;-141.28;100.00;49231.22;5118773;27;20885;-78
2022/10/28 02:32:57;;;;;;;9.00;4.80;;;;;;;-141.28;100.00;49211.59;5132617;27;20677;-77
2022/10/28 02:35:30;;;;;;;8.13;4.60;;;;;;;-141.28;100.00;49235.16;5132683;27;20198;-77
2022/10/28 02:38:00;;;;;;;10.57;5.70;;;;;;;-141.28;100.00;49217.50;5132819;27;20230;-75
2022/10/28 02:40:30;;;;;;;13.43;6.33;;;;;;;-141.28;100.00;49223.38;5132142;27;20645;-78
2022/10/28 02:43:01;;;;;;;13.77;5.97;;;;;;;-141.28;100.00;49199.84;5132733;27;20202;-79
2022/10/28 02:45:33;;;;;;;17.43;7.23;;;;;;;-141.28;100.00;49215.53;5119280;28;20202;-78
2022/10/28 02:48:07;;;;;;;17.70;8.07;;;;;;;-141.28;100.00;49195.91;5133200;27;20225;-76
2022/10/28 02:50:38;;;;;;;16.23;8.47;;;;;;;-141.28;100.00;49219.47;5134142;28;20288;-76
2022/10/28 02:53:11;;;;;;;25.87;9.30;;;;;;;-141.28;100.00;49203.75;5133190;28;20205;-77
2022/10/28 02:55:43;;;;;;;18.77;8.53;;;;;;;-141.28;100.00;49211.59;5134108;28;20255;-77
2022/10/28 02:58:11;;;;;;;17.90;8.77;;;;;;;-141.28;100.00;49195.91;5132835;28;20738;-80
2022/10/28 03:00:43;;;;;;;14.33;7.90;;;;;;;-141.28;100.00;49188.06;5132544;28;20677;-78
2022/10/28 03:03:11;;;;;;;14.50;7.90;;;;;;;-141.28;100.00;49199.84;5132953;27;20198;-76
2022/10/28 03:05:38;;;;;;;17.00;7.90;;;;;;;-141.28;100.00;49205.72;5132458;28;20210;-76
2022/10/28 03:08:06;;;;;;;21.40;7.97;;;;;;;-141.28;100.00;49199.84;5132307;28;20669;-78
2022/10/28 03:10:33;;;;;;;16.37;7.00;;;;;;;-141.28;100.00;49211.59;5131717;28;20759;-76
2022/10/28 03:12:59;;;;;;;15.03;6.87;;;;;;;-141.28;100.00;49186.09;5132411;28;20248;-76
2022/10/28 03:15:26;;;;;;;14.77;6.27;;;;;;;-141.28;100.00;49192.00;5132317;28;20194;-79
2022/10/28 03:17:53;;;;;;;12.37;6.10;;;;;;;-141.28;100.00;49203.75;5132275;28;20261;-76
2022/10/28 03:20:21;;;;;;;30.93;8.83;;;;;;;-141.28;100.00;49176.28;5132217;28;20213;-76
2022/10/28 03:22:48;;;;;;;24.80;8.63;;;;;;;-141.28;100.00;49182.19;5126251;28;20244;-77
2022/10/28 03:25:15;;;;;;;18.87;8.90;;;;;;;-141.28;100.00;49184.13;5125580;28;20676;-76
2022/10/28 03:27:42;;;;;;;20.60;8.47;;;;;;;-141.28;100.00;49192.00;5132252;28;20206;-79
2022/10/28 03:30:10;;;;;;;21.07;8.57;;;;;;;-141.28;100.00;49192.00;5132006;28;20225;-80
2022/10/28 03:32:36;;;;;;;26.20;9.83;;;;;;;-141.28;100.00;49188.06;5131771;28;20201;-75
2022/10/28 03:35:04;;;;;;;24.23;10.00;;;;;;;-141.28;100.00;49190.03;5132240;28;20219;-78
2022/10/28 03:37:33;;;;;;;29.63;10.43;;;;;;;-141.28;100.00;49192.00;5113494;28;20230;-75
2022/10/28 03:40:01;;;;;;;18.20;9.90;;;;;;;-141.28;100.00;49192.00;5132500;27;20206;-79
2022/10/28 03:42:28;;;;;;;23.67;9.57;;;;;;;-141.28;100.00;49188.06;5135842;27;20199;-77
2022/10/28 03:44:55;;;;;;;19.83;8.33;;;;;;;-141.28;100.00;49190.03;5140143;27;20198;-78
2022/10/28 03:47:22;;;;;;;21.70;8.87;;;;;;;-141.28;100.00;49184.13;5135143;27;20206;-77
2022/10/28 03:49:50;;;;;;;21.13;8.50;;;;;;;-141.28;100.00;49172.38;5136192;27;20601;-78
2022/10/28 03:52:17;;;;;;;19.23;7.13;;;;;;;-141.28;100.00;49195.91;5135866;27;20202;-75
2022/10/28 03:54:45;;;;;;;22.50;8.17;;;;;;;-141.28;100.00;49162.56;5135490;27;20255;-76
2022/10/28 03:57:12;;;;;;;16.33;7.43;;;;;;;-141.28;100.00;49180.22;5135645;27;20313;-77
2022/10/28 03:59:39;;;;;;;16.23;7.20;;;;;;;-141.28;100.00;49176.28;5139597;27;20221;-76
2022/10/28 04:02:06;;;;;;;25.67;10.03;;;;;;;-141.28;100.00;49199.84;5140103;27;20703;-77
2022/10/28 04:04:33;;;;;;;51.40;40.47;;;;;;;-141.28;100.00;49197.88;5135247;27;20903;-78
2022/10/28 04:07:00;;;;;;;29.13;14.07;;;;;;;-141.28;100.00;49199.84;5135556;27;20455;-76
2022/10/28 04:09:26;;;;;;;16.60;8.13;;;;;;;-141.28;100.00;49250.84;5134990;27;20507;-77
2022/10/28 04:11:55;;;;;;;17.13;7.17;;;;;;;-141.28;100.00;49274.41;5135293;27;20661;-79
2022/10/28 04:14:22;;;;;;;13.23;7.23;;;;;;;-141.28;100.00;49268.50;5094209;28;20299;-76
2022/10/28 04:16:49;;;;;;;14.70;7.37;;;;;;;-141.28;100.00;49274.41;5094266;28;20477;-80
2022/10/28 04:19:16;;;;;;;16.97;7.07;;;;;;;-141.28;100.00;49301.88;5094146;28;20200;-77
2022/10/28 04:21:43;;;;;;;20.40;8.67;;;;;;;-141.28;100.00;49303.84;5093971;28;20518;-76
2022/10/28 04:24:10;;;;;;;29.03;8.90;;;;;;;-141.28;100.00;49327.38;5081393;28;20438;-75
2022/10/28 04:26:37;;;;;;;17.70;7.83;;;;;;;-141.28;100.00;49339.16;5094001;28;20273;-78
2022/10/28 04:29:06;;;;;;;17.13;6.87;;;;;;;-141.28;100.00;49352.88;5093879;28;21350;-78
2022/10/28 04:31:33;;;;;;;19.97;8.47;;;;;;;-141.28;100.00;49356.81;5094273;28;20960;-77
2022/10/28 04:34:00;;;;;;;20.27;7.80;;;;;;;-141.28;100.00;49319.53;5093683;28;20445;-76
2022/10/28 04:36:27;;;;;;;45.60;11.47;;;;;;;-141.28;100.00;49392.13;5093662;28;20905;-76
2022/10/28 04:38:54;;;;;;;43.37;10.20;;;;;;;-141.28;100.00;49388.22;5093752;28;20211;-75
2022/10/28 04:41:21;;;;;;;38.77;9.40;;;;;;;-141.28;100.00;49396.06;5094736;28;20199;-77
2022/10/28 04:43:48;;;;;;;39.00;9.73;;;;;;;-141.28;100.00;49384.28;5093728;28;20204;-76
2022/10/28 04:46:17;;;;;;;23.93;8.90;;;;;;;-141.28;100.00;49376.44;5093630;28;20207;-78
2022/10/28 04:48:46;;;;;;;31.20;10.17;;;;;;;-141.28;100.00;49417.63;5093685;28;20199;-80
2022/10/28 04:51:13;;;;;;;29.20;10.63;;;;;;;-141.28;100.00;49427.44;5093552;28;20203;-80
2022/10/28 04:53:41;;;;;;;32.97;9.80;;;;;;;-141.28;100.00;49454.94;5093728;28;20226;-78
2022/10/28 04:56:09;;;;;;;38.97;10.67;;;;;;;-141.28;100.00;49443.16;5093275;28;20662;-75
2022/10/28 04:58:36;;;;;;;45.50;12.23;;;;;;;-141.28;100.00;49447.06;5093026;28;20238;-76
2022/10/28 05:01:06;;;;;;;45.07;16.23;;;;;;;-141.28;100.00;49443.16;5093365;28;20740;-76
2022/10/28 05:03:35;;;;;;;35.67;13.83;;;;;;;-141.28;100.00;49458.84;5096713;28;20261;-78
2022/10/28 05:06:02;;;;;;;46.00;21.70;;;;;;;-141.28;100.00;49460.81;5093397;28;20196;-76
2022/10/28 05:08:29;;;;;;;64.13;22.63;;;;;;;-141.28;100.00;49458.84;5092272;28;20253;-79
2022/10/28 05:10:56;;;;;;;68.97;27.77;;;;;;;-141.28;100.00;49478.47;5093039;28;20678;-76
2022/10/28 05:13:23;;;;;;;53.30;26.37;;;;;;;-141.28;100.00;49474.53;5117954;27;20937;-78
2022/10/28 05:15:50;;;;;;;68.17;29.93;;;;;;;-141.28;100.00;49480.44;5133809;27;20350;-75
2022/10/28 05:18:18;;;;;;;69.53;26.10;;;;;;;-141.28;100.00;49498.09;5133643;27;20781;-76
2022/10/28 05:20:51;;;;;;;52.23;24.53;;;;;;;-141.28;100.00;49596.22;5133508;27;20198;-76
2022/10/28 05:23:18;;;;;;;52.30;19.67;;;;;;;-141.28;100.00;49664.91;5123274;27;20213;-76
2022/10/28 05:25:45;;;;;;;54.13;16.80;;;;;;;-141.28;100.00;49804.22;5131385;27;20285;-75
2022/10/28 05:28:12;;;;;;;47.00;16.20;;;;;;;-141.28;100.00;49933.75;5133783;27;20669;-78
2022/10/28 05:30:38;;;;;;;65.07;15.53;;;;;;;-141.28;100.00;49961.22;5133827;27;20716;-78
2022/10/28 05:33:06;;;;;;;62.13;15.20;;;;;;;-141.28;100.00;49990.66;5133731;27;20209;-77
2022/10/28 05:35:33;;;;;;;41.83;11.27;;;;;;;-141.28;100.00;49851.31;5133414;27;20259;-79
2022/10/28 05:38:01;;;;;;;36.73;11.83;;;;;;;-141.28;100.00;49749.28;5133107;27;20241;-76
2022/10/28 05:40:28;;;;;;;37.43;11.50;;;;;;;-141.28;100.00;50096.66;5133255;27;20198;-77
2022/10/28 05:42:55;;;;;;;30.70;13.97;;;;;;;-141.28;100.00;50526.50;5133192;27;20208;-77
2022/10/28 05:45:22;;;;;;;27.93;14.83;;;;;;;-141.28;100.00;50463.69;5133415;27;20234;-78
2022/10/28 05:47:49;;;;;;;28.30;14.93;;;;;;;-141.28;100.00;50292.91;5133574;27;20214;-78
2022/10/28 05:50:19;;;;;;;23.60;14.90;;;;;;;-141.28;100.00;49957.31;5133355;27;20644;-76
2022/10/28 05:52:47;;;;;;;26.30;11.93;;;;;;;-141.28;100.00;49674.72;5133587;27;20209;-78
2022/10/28 05:55:18;;;;;;;26.37;11.90;;;;;;;-141.28;100.00;49584.44;5119405;27;20282;-77
2022/10/28 05:57:45;;;;;;;28.43;11.20;;;;;;;-141.28;100.00;49659.00;5133112;27;20222;-79
2022/10/28 06:00:13;;;;;;;37.10;10.53;;;;;;;-141.28;100.00;49513.78;5114786;27;20214;-76
2022/10/28 06:02:41;;;;;;;18.57;9.67;;;;;;;-141.28;100.00;49521.63;5133034;27;20696;-78
2022/10/28 06:05:09;;;;;;;27.10;9.30;;;;;;;-141.28;100.00;49655.09;5131886;27;20218;-77
2022/10/28 06:07:36;;;;;;;27.33;9.17;;;;;;;-141.28;100.00;49710.03;5132899;27;20626;-81
2022/10/28 06:10:05;;;;;;;29.27;8.80;;;;;;;-141.28;100.00;49851.31;5132913;27;20206;-78
2022/10/28 06:12:33;;;;;;;20.60;8.23;;;;;;;-141.28;100.00;49912.16;5132729;27;20317;-78
2022/10/28 06:15:00;;;;;;;17.33;7.80;;;;;;;-141.28;100.00;50177.13;5132802;27;20194;-79
2022/10/28 06:17:27;;;;;;;24.47;7.40;;;;;;;-141.28;100.00;50326.28;5132515;27;20218;-78
2022/10/28 06:19:55;;;;;;;28.30;6.67;;;;;;;-141.28;100.00;50389.09;5134259;27;20198;-76
2022/10/28 06:22:22;;;;;;;22.47;7.70;;;;;;;-141.28;100.00;50438.16;5133750;27;20201;-76
2022/10/28 06:24:49;;;;;;;22.60;7.90;;;;;;;-141.28;100.00;50455.84;5122870;27;20202;-78
2022/10/28 06:27:16;;;;;;;19.90;7.63;;;;;;;-141.28;100.00;50499.00;5132633;27;20194;-80
2022/10/28 06:29:46;;;;;;;19.17;7.17;;;;;;;-141.28;100.00;50542.19;5133925;27;20205;-75
2022/10/28 06:32:12;;;;;;;25.57;8.20;;;;;;;-141.28;100.00;50514.72;5132524;27;20194;-77
2022/10/28 06:34:39;;;;;;;22.97;7.37;;;;;;;-141.28;100.00;50593.22;5132876;27;20198;-76
2022/10/28 06:37:06;;;;;;;22.37;7.37;;;;;;;-141.28;100.00;50548.09;5132307;27;20198;-78
2022/10/28 06:39:33;;;;;;;16.17;6.63;;;;;;;-141.28;100.00;50512.75;5132891;27;20285;-76
2022/10/28 06:42:00;;;;;;;23.87;8.73;;;;;;;-141.28;100.00;50487.25;5132289;27;20227;-77
2022/10/28 06:44:27;;;;;;;22.03;8.03;;;;;;;-141.28;100.00;50436.19;5132491;27;20564;-78
2022/10/28 06:46:56;;;;;;;33.87;8.50;;;;;;;-141.28;100.00;50406.75;5133062;27;20255;-77
2022/10/28 06:49:23;;;;;;;20.53;8.63;;;;;;;-141.28;100.00;50332.19;5133103;27;20207;-79
2022/10/28 06:51:50;;;;;;;21.50;8.17;;;;;;;-141.28;100.00;50263.47;5134267;28;20285;-80
2022/10/28 06:54:17;;;;;;;27.73;8.47;;;;;;;-141.28;100.00;50373.38;5133360;28;20664;-78
2022/10/28 06:56:46;;;;;;;23.30;8.90;;;;;;;-141.28;100.00;50459.75;5132375;28;20206;-77
2022/10/28 06:59:13;;;;;;;19.23;9.53;;;;;;;-141.28;100.00;50459.75;5132274;28;20237;-75
2022/10/28 07:01:40;;;;;;;27.20;10.07;;;;;;;-141.28;100.00;50444.06;5132327;28;20202;-76
2022/10/28 07:04:11;;;;;;;18.50;9.53;;;;;;;-141.28;100.00;50300.78;5132425;28;20217;-76
2022/10/28 07:06:41;;;;;;;22.13;8.83;;;;;;;-141.28;100.00;50273.28;5132543;28;20713;-76
2022/10/28 07:09:08;;;;;;;25.33;9.37;;;;;;;-141.28;100.00;50216.38;5131954;28;20227;-78
2022/10/28 07:11:35;;;;;;;24.53;9.10;;;;;;;-141.28;100.00;50102.53;5132379;28;20210;-79
2022/10/28 07:14:02;;;;;;;29.30;8.77;;;;;;;-141.28;100.00;50012.25;5135086;28;20688;-77
2022/10/28 07:16:28;;;;;;;26.30;8.50;;;;;;;-141.28;100.00;50094.69;5139913;27;20210;-75
2022/10/28 07:18:56;;;;;;;22.20;8.50;;;;;;;-141.28;100.00;50141.78;5136175;27;20262;-78
2022/10/28 07:21:27;;;;;;;18.47;8.47;;;;;;;-141.28;100.00;50039.72;5135970;27;20202;-79
2022/10/28 07:23:55;;;;;;;18.73;8.10;;;;;;;-141.28;100.00;49933.75;5129381;27;20210;-76
2022/10/28 07:26:22;;;;;;;24.47;9.13;;;;;;;-141.28;100.00;49886.66;5135652;27;20288;-77
2022/10/28 07:28:50;;;;;;;28.47;8.70;;;;;;;-141.28;100.00;50051.50;5137688;27;20239;-77
2022/10/28 07:31:17;;;;;;;23.67;8.50;;;;;;;-141.28;100.00;50188.91;5137311;27;20199;-77
2022/10/28 07:33:44;;;;;;;21.53;8.70;;;;;;;-141.28;100.00;50143.75;5137161;27;20206;-75
2022/10/28 07:36:11;;;;;;;16.80;8.03;;;;;;;-141.28;100.00;50016.19;5136233;27;20285;-77
2022/10/28 07:38:40;;;;;;;19.17;6.57;;;;;;;-141.28;100.00;49935.72;5140123;27;20251;-76
2022/10/28 07:41:08;;;;;;;15.97;6.77;;;;;;;-141.28;100.00;49886.66;5137393;27;20234;-76
2022/10/28 07:43:37;;;;;;;15.13;6.83;;;;;;;-141.28;100.00;49717.88;5138329;27;20199;-77
2022/10/28 07:46:04;;;;;;;22.17;7.77;;;;;;;-141.28;100.00;49668.81;5136404;27;20288;-79
2022/10/28 07:48:31;;;;;;;19.90;7.20;;;;;;;-141.28;100.00;49611.91;5135881;27;20206;-78
2022/10/28 07:51:00;;;;;;;15.23;7.40;;;;;;;-141.28;100.00;49682.56;5135688;27;20661;-77
2022/10/28 07:53:28;;;;;;;15.90;7.30;;;;;;;-141.28;100.00;49916.09;5135340;27;20622;-79
2022/10/28 07:55:57;;;;;;;19.73;6.90;;;;;;;-141.28;100.00;49929.81;5135285;27;20297;-76
2022/10/28 07:58:24;;;;;;;18.70;7.20;;;;;;;-141.28;100.00;49823.84;5135390;27;20214;-78
2022/10/28 08:00:52;;;;;;;20.20;7.23;;;;;;;-141.28;100.00;49821.88;5135385;27;20198;-76
2022/10/28 08:03:19;;;;;;;15.50;7.13;;;;;;;-141.28;100.00;49761.06;5134652;27;20708;-76
2022/10/28 08:05:46;;;;;;;13.97;7.30;;;;;;;-141.28;100.00;49749.28;5135491;27;20665;-76
2022/10/28 08:08:13;;;;;;;17.40;6.90;;;;;;;-141.28;100.00;49639.38;5134450;27;20206;-77
2022/10/28 08:10:40;;;;;;;14.00;7.27;;;;;;;-141.28;100.00;49486.31;5135805;27;20336;-76
2022/10/28 08:13:10;;;;;;;15.83;7.13;;;;;;;-141.28;100.00;49470.63;5135086;27;20226;-78
2022/10/28 08:15:37;;;;;;;23.67;6.73;;;;;;;-141.28;100.00;49494.16;5135247;27;20629;-76
2022/10/28 08:18:04;;;;;;;12.57;6.70;;;;;;;-141.28;100.00;49639.38;5134916;27;20641;-77
2022/10/28 08:20:31;;;;;;;18.70;7.23;;;;;;;-141.28;100.00;49635.47;5135072;27;20733;-78
2022/10/28 08:22:58;;;;;;;17.10;7.20;;;;;;;-141.28;100.00;49725.72;5127524;27;20558;-80
2022/10/28 08:25:25;;;;;;;16.90;6.97;;;;;;;-141.28;100.00;49780.69;5130065;27;20206;-78
2022/10/28 08:27:52;;;;;;;14.80;7.47;;;;;;;-141.28;100.00;49588.34;5134913;27;20211;-78
2022/10/28 08:30:20;;;;;;;19.27;8.33;;;;;;;-141.28;100.00;49345.03;5134677;27;20632;-78
2022/10/28 08:32:47;;;;;;;22.60;8.20;;;;;;;-141.28;100.00;49398.03;5134862;27;20233;-77
2022/10/28 08:35:14;;;;;;;15.67;7.30;;;;;;;-141.28;100.00;49503.97;5137344;27;20271;-76
2022/10/28 08:37:44;;;;;;;12.97;7.20;;;;;;;-141.28;100.00;49637.41;5148578;27;20195;-76
2022/10/28 08:40:13;;;;;;;20.60;6.53;;;;;;;-141.28;100.00;49409.78;5141066;27;20665;-80
2022/10/28 08:42:46;;;;;;;14.83;6.87;;;;;;;-141.28;100.00;49372.50;5140539;27;20629;-77
2022/10/28 08:45:25;;;;;;;19.30;7.63;;;;;;;-141.28;100.00;49415.69;5134924;27;20668;-77
2022/10/28 08:48:03;;;;;;;18.10;7.67;;;;;;;-141.28;100.00;49401.94;5134256;27;20648;-76
2022/10/28 08:50:32;;;;;;;12.17;6.83;;;;;;;-141.28;100.00;49435.31;5134055;27;20291;-78
2022/10/28 08:53:04;;;;;;;13.53;7.37;;;;;;;-141.28;100.00;49623.69;5134965;27;20222;-76
2022/10/28 08:55:35;;;;;;;18.20;8.00;;;;;;;-141.28;100.00;49678.63;5135930;27;20206;-75
2022/10/28 08:58:08;;;;;;;21.40;8.00;;;;;;;-141.28;100.00;49706.09;5136188;27;20237;-76
2022/10/28 09:00:36;;;;;;;15.63;7.47;;;;;;;-141.28;100.00;49580.50;5134080;27;20198;-78
2022/10/28 09:03:16;;;;;;;21.80;7.50;;;;;;;-141.28;100.00;49549.13;5133891;27;20202;-76
2022/10/28 09:05:46;;;;;;;15.73;7.73;;;;;;;-141.28;100.00;49447.06;5133954;27;20198;-76
2022/10/28 09:08:21;;;;;;;14.60;6.87;;;;;;;-141.28;100.00;49521.63;5133596;27;20202;-77
2022/10/28 09:11:11;;;;;;;24.90;8.10;;;;;;;-141.28;100.00;49443.16;5134427;27;20634;-76
2022/10/28 09:13:53;;;;;;;22.37;8.27;;;;;;;-141.28;100.00;49341.13;5109455;27;20233;-75
2022/10/28 09:16:32;;;;;;;18.70;8.10;;;;;;;-141.28;100.00;49295.97;5133621;27;20190;-78
2022/10/28 09:19:04;;;;;;;19.53;7.77;;;;;;;-141.28;100.00;49305.78;5133647;27;20230;-76
2022/10/28 09:21:33;;;;;;;17.70;8.03;;;;;;;-141.28;100.00;49315.59;5133880;27;20202;-76
2022/10/28 09:24:06;;;;;;;22.13;8.17;;;;;;;-141.28;100.00;49235.16;5120744;27;20225;-78
2022/10/28 09:26:45;;;;;;;15.83;7.30;;;;;;;-141.28;100.00;49252.81;5133783;27;20668;-76
2022/10/28 09:29:25;;;;;;;15.13;6.97;;;;;;;-141.28;100.00;49266.56;5133411;27;20198;-78
2022/10/28 09:32:12;;;;;;;18.27;7.00;;;;;;;-141.28;100.00;49262.63;5133186;27;20254;-77
2022/10/28 09:34:44;;;;;;;22.00;7.40;;;;;;;-141.28;100.00;49243.00;5133722;27;20194;-77
2022/10/28 09:37:17;;;;;;;24.30;7.90;;;;;;;-141.28;100.00;49235.16;5133497;27;20205;-81
2022/10/28 09:39:47;;;;;;;18.40;6.73;;;;;;;-141.28;100.00;49152.75;5133330;27;20238;-77
2022/10/28 09:42:20;;;;;;;19.37;7.23;;;;;;;-141.28;100.00;49207.69;5120602;27;20194;-79
2022/10/28 09:44:52;;;;;;;18.40;6.63;;;;;;;-141.28;100.00;49184.13;5133775;27;20247;-76
2022/10/28 09:47:24;;;;;;;23.40;6.63;;;;;;;-141.28;100.00;49203.75;5124872;27;20674;-75
2022/10/28 09:49:54;;;;;;;15.40;7.13;;;;;;;-141.28;100.00;49180.22;5132836;27;20606;-77
2022/10/28 09:52:25;;;;;;;17.73;7.40;;;;;;;-141.28;100.00;49117.44;5141380;27;20236;-77
2022/10/28 09:54:54;;;;;;;12.73;6.20;;;;;;;-141.28;98.32;49080.16;5141021;27;20223;-77
2022/10/28 09:57:25;;;;;;;17.50;6.87;;;;;;;-141.28;92.18;49109.59;5139195;27;20202;-76
2022/10/28 09:59:52;;;;;;;25.40;6.60;;;;;;;-141.28;94.13;48997.75;5138277;27;20218;-78
2022/10/28 10:02:28;;;;;;;13.83;6.53;;;;;;;-141.28;91.97;48991.84;5137948;27;20194;-76
2022/10/28 10:04:56;;;;;;;14.57;5.10;;;;;;;-141.28;85.32;49070.34;5122067;27;20228;-76
2022/10/28 10:07:32;;;;;;;19.60;5.33;;;;;;;-141.28;85.57;49070.34;5133983;27;20644;-78
2022/10/28 10:10:02;;;;;;;20.77;6.10;;;;;;;-141.28;79.43;49062.50;5132892;27;20206;-74
2022/10/28 10:12:31;;;;;;;16.53;5.60;;;;;;;-141.28;83.11;49054.66;5132744;27;20241;-76
2022/10/28 10:14:59;;;;;;;25.63;5.43;;;;;;;-141.28;77.52;49036.97;5136238;27;20653;-76
2022/10/28 10:17:35;;;;;;;16.67;5.60;;;;;;;-141.28;75.74;49035.03;5133016;27;20293;-80
2022/10/28 10:20:07;;;;;;;11.13;5.27;;;;;;;-141.28;81.93;49140.97;5132892;27;20310;-76
2022/10/28 10:22:35;;;;;;;9.40;4.63;;;;;;;-141.28;84.17;49113.50;5131191;27;20200;-76
2022/10/28 10:25:03;;;;;;;7.07;4.50;;;;;;;-141.28;83.17;49031.09;5128784;27;20198;-76
2022/10/28 10:27:31;;;;;;;9.80;4.23;;;;;;;-141.28;81.39;49109.59;5126919;27;20710;-78
2022/10/28 10:29:59;;;;;;;11.53;4.10;;;;;;;-141.28;84.98;49131.16;5125073;27;20295;-78
2022/10/28 10:32:30;;;;;;;7.47;3.83;;;;;;;-141.28;81.29;49082.13;5132402;27;20215;-80
2022/10/28 10:35:02;;;;;;;10.23;3.67;;;;;;;-141.28;76.12;49099.78;5132481;27;20203;-76
2022/10/28 10:37:31;;;;;;;6.67;3.80;;;;;;;-141.28;71.91;49050.72;5120312;27;20209;-79
2022/10/28 10:40:06;;;;;;;7.20;3.43;;;;;;;-141.28;71.64;49086.03;5132759;27;20293;-77
2022/10/28 10:42:34;;;;;;;7.17;4.20;;;;;;;-141.28;71.13;49064.44;5123627;27;20575;-77
2022/10/28 10:45:20;;;;;;;6.83;4.07;;;;;;;-141.28;74.10;49088.00;5128793;27;20295;-76
2022/10/28 10:47:49;;;;;;;7.77;4.40;;;;;;;-141.28;72.74;49052.69;5132329;27;20211;-78
2022/10/28 10:50:24;;;;;;;11.43;4.00;;;;;;;-141.28;72.57;49089.97;5131956;27;20203;-77
2022/10/28 10:52:53;;;;;;;14.13;4.00;;;;;;;-141.28;70.10;48887.88;5132273;28;20593;-77
2022/10/28 10:55:27;;;;;;;8.43;4.03;;;;;;;-141.28;67.66;48989.91;5132302;28;20201;-77
2022/10/28 10:57:55;;;;;;;11.87;4.40;;;;;;;-141.28;64.42;48952.63;5132401;28;20262;-77
2022/10/28 11:00:28;;;;;;;11.00;4.37;;;;;;;-141.28;64.23;48968.31;5131975;28;20775;-78
2022/10/28 11:02:57;;;;;;;13.50;4.47;;;;;;;-141.28;64.56;48980.09;5132266;28;20198;-79
2022/10/28 11:05:24;;;;;;;11.00;4.10;;;;;;;-141.28;63.06;49001.66;5131822;28;20704;-77
2022/10/28 11:07:52;;;;;;;9.50;4.10;;;;;;;-141.28;63.72;49050.72;5132215;28;20267;-79
2022/10/28 11:10:24;;;;;;;7.87;3.60;;;;;;;-141.28;65.16;49025.22;5132243;28;20195;-75
2022/10/28 11:12:53;;;;;;;8.40;3.57;;;;;;;-141.28;64.84;49015.41;5132466;28;20690;-81
2022/10/28 11:15:25;;;;;;;8.90;3.43;;;;;;;-141.28;62.48;48989.91;5132611;28;20209;-77